Time;durP1;ratioP1;P1;durP2;ratioP2;P2;SDS_P1;SDS_P2;PMS_P1;PMS_P2;Temp;Humidity;BMP_temperature;BMP_pressure;BME280_temperature;BME280_humidity;BME280_pressure;Samples;Min_cycle;Max_cycle;Signal;HPM_P1;HPM_P2
2023/07/13 00:00:38;;;;;;;19.50;3.10;;;17.00;99.90;;;;;;5118284;28;20043;-79
2023/07/13 00:03:04;;;;;;;13.70;3.40;;;17.00;99.90;;;;;;5119180;28;20105;-80
2023/07/13 00:05:30;;;;;;;12.57;2.90;;;17.00;99.90;;;;;;5109690;28;20040;-78
2023/07/13 00:07:56;;;;;;;9.27;2.70;;;17.00;99.90;;;;;;5120817;28;20501;-79
2023/07/13 00:10:22;;;;;;;12.63;3.03;;;17.00;99.90;;;;;;5092956;28;20055;-78
2023/07/13 00:12:49;;;;;;;16.13;3.03;;;17.00;99.90;;;;;;5114792;28;20047;-79
2023/07/13 00:15:22;;;;;;;10.70;2.30;;;17.00;99.90;;;;;;5103104;28;20020;-78
2023/07/13 00:17:53;;;;;;;10.60;3.28;;;16.90;99.90;;;;;;5117886;28;20047;-78
2023/07/13 00:20:22;;;;;;;12.45;3.15;;;16.90;99.90;;;;;;5113714;28;20089;-79
2023/07/13 00:22:48;;;;;;;12.38;3.35;;;16.90;99.90;;;;;;5104758;28;20112;-78
2023/07/13 00:25:15;;;;;;;11.93;3.00;;;16.90;99.90;;;;;;5120636;28;20106;-79
2023/07/13 00:27:42;;;;;;;9.73;3.10;;;16.90;99.90;;;;;;5110116;28;20040;-79
2023/07/13 00:30:09;;;;;;;14.95;3.05;;;16.90;99.90;;;;;;5095686;28;20047;-79
2023/07/13 00:32:35;;;;;;;9.82;3.00;;;16.90;99.90;;;;;;5100743;28;20040;-78
2023/07/13 00:35:03;;;;;;;14.10;3.13;;;16.90;99.90;;;;;;5119387;28;20100;-79
2023/07/13 00:37:29;;;;;;;14.57;2.63;;;16.90;99.90;;;;;;5102964;28;20036;-79
2023/07/13 00:39:54;;;;;;;12.13;3.13;;;16.90;99.90;;;;;;5115785;28;20104;-79
2023/07/13 00:42:20;;;;;;;12.35;2.60;;;16.80;99.90;;;;;;5086801;28;20474;-79
2023/07/13 00:45:21;;;;;;;18.30;3.17;;;16.90;99.90;;;;;;5113677;28;20042;-79
2023/07/13 00:47:47;;;;;;;19.50;3.20;;;16.90;99.90;;;;;;5019443;28;20037;-79
2023/07/13 00:50:15;;;;;;;12.20;3.38;;;16.90;99.90;;;;;;5101756;28;20048;-79
2023/07/13 00:52:47;;;;;;;12.73;3.03;;;16.80;99.90;;;;;;5111684;28;20080;-80
2023/07/13 00:55:15;;;;;;;15.57;3.25;;;16.80;99.90;;;;;;5112956;28;20493;-78
2023/07/13 00:57:41;;;;;;;15.07;3.40;;;16.80;99.90;;;;;;5096786;28;20040;-80
2023/07/13 01:00:08;;;;;;;12.40;3.40;;;16.80;99.90;;;;;;5099652;28;20180;-79
2023/07/13 01:02:39;;;;;;;11.32;3.10;;;16.80;99.90;;;;;;5113041;28;20068;-79
2023/07/13 01:05:14;;;;;;;16.35;3.88;;;16.80;99.90;;;;;;5112234;28;20044;-79
2023/07/13 01:07:42;;;;;;;12.35;3.08;;;16.80;99.90;;;;;;5117782;28;20134;-79
2023/07/13 01:10:08;;;;;;;12.82;2.72;;;16.80;99.90;;;;;;5080602;28;20129;-79
2023/07/13 01:12:34;;;;;;;13.23;3.20;;;16.80;99.90;;;;;;5117297;28;20078;-78
2023/07/13 01:15:01;;;;;;;19.00;4.05;;;16.80;99.90;;;;;;5116124;28;20043;-80
2023/07/13 01:17:28;;;;;;;10.27;3.50;;;16.70;99.90;;;;;;5118070;28;20035;-79
2023/07/13 01:19:55;;;;;;;13.73;2.85;;;16.70;99.90;;;;;;5121173;28;20043;-79
2023/07/13 01:22:26;;;;;;;11.07;2.90;;;16.70;99.90;;;;;;5076092;28;20097;-78
2023/07/13 01:24:53;;;;;;;12.20;3.10;;;16.70;99.90;;;;;;5121781;28;20053;-78
2023/07/13 01:27:25;;;;;;;13.52;3.30;;;16.70;99.90;;;;;;5114617;28;20054;-79
2023/07/13 01:29:52;;;;;;;13.93;3.40;;;16.60;99.90;;;;;;5119221;28;20050;-80
2023/07/13 01:32:23;;;;;;;12.23;3.47;;;16.60;99.90;;;;;;5116799;28;20036;-78
2023/07/13 01:34:56;;;;;;;11.48;3.05;;;16.60;99.90;;;;;;5098569;28;20467;-79
2023/07/13 01:37:24;;;;;;;11.95;3.03;;;16.60;99.90;;;;;;5118741;28;20075;-78
2023/07/13 01:39:50;;;;;;;16.45;4.00;;;16.60;99.90;;;;;;5097177;28;20066;-79
2023/07/13 01:42:16;;;;;;;13.25;3.17;;;16.60;99.90;;;;;;5116126;28;20518;-79
2023/07/13 01:44:41;;;;;;;14.90;3.55;;;16.60;99.90;;;;;;5095436;28;20039;-79
2023/07/13 01:47:07;;;;;;;16.13;3.40;;;16.60;99.90;;;;;;5117792;28;20040;-80
2023/07/13 01:49:33;;;;;;;18.42;3.75;;;16.60;99.90;;;;;;5104302;28;20370;-79
2023/07/13 01:51:58;;;;;;;12.90;3.08;;;16.60;99.90;;;;;;5122152;28;20035;-78
2023/07/13 01:54:24;;;;;;;13.65;3.10;;;16.60;99.90;;;;;;5122600;28;20036;-79
2023/07/13 01:56:50;;;;;;;16.27;3.25;;;16.60;99.90;;;;;;5116536;28;20056;-80
2023/07/13 01:59:16;;;;;;;12.68;3.33;;;16.60;99.90;;;;;;5121840;28;20050;-80
2023/07/13 02:01:41;;;;;;;13.68;3.00;;;16.60;99.90;;;;;;5101342;28;20035;-80
2023/07/13 02:04:07;;;;;;;10.65;3.17;;;16.60;99.90;;;;;;5098799;28;20405;-79
2023/07/13 02:06:33;;;;;;;9.85;2.80;;;16.60;99.90;;;;;;5115290;28;20059;-81
2023/07/13 02:08:59;;;;;;;12.50;3.03;;;16.60;99.90;;;;;;5117336;28;20437;-80
2023/07/13 02:11:25;;;;;;;16.17;3.85;;;16.60;99.90;;;;;;5116583;28;20054;-78
2023/07/13 02:13:51;;;;;;;15.57;3.85;;;16.60;99.90;;;;;;5114925;28;20099;-78
2023/07/13 02:16:17;;;;;;;15.32;3.13;;;16.50;99.90;;;;;;5115438;28;20077;-80
2023/07/13 02:18:43;;;;;;;12.20;3.13;;;16.60;99.90;;;;;;5083848;28;20052;-78
2023/07/13 02:21:09;;;;;;;13.05;3.20;;;16.60;99.90;;;;;;5119401;28;20393;-79
2023/07/13 02:23:36;;;;;;;12.45;2.88;;;16.50;99.90;;;;;;5098371;28;20036;-79
2023/07/13 02:26:03;;;;;;;13.23;3.92;;;16.50;99.90;;;;;;5101520;28;20036;-79
2023/07/13 02:28:29;;;;;;;10.00;2.92;;;16.50;99.90;;;;;;5120695;27;20040;-80
2023/07/13 02:30:54;;;;;;;8.95;2.60;;;16.50;99.90;;;;;;5120429;28;20162;-79
2023/07/13 02:33:20;;;;;;;10.90;2.65;;;16.50;99.90;;;;;;5101016;28;20103;-78
2023/07/13 02:35:46;;;;;;;10.00;2.92;;;16.50;99.90;;;;;;5100442;28;20039;-80
2023/07/13 02:38:12;;;;;;;9.82;3.45;;;16.50;99.90;;;;;;5098364;28;20043;-80
2023/07/13 02:40:38;;;;;;;13.57;3.08;;;16.40;99.90;;;;;;5113525;28;20078;-78
2023/07/13 02:43:04;;;;;;;14.00;3.25;;;16.40;99.90;;;;;;5088303;28;20083;-79
2023/07/13 02:45:29;;;;;;;11.43;3.08;;;16.40;99.90;;;;;;5114953;28;20402;-79
2023/07/13 02:47:55;;;;;;;9.57;2.67;;;16.40;99.90;;;;;;5093089;28;20039;-80
2023/07/13 02:50:21;;;;;;;9.00;3.00;;;16.40;99.90;;;;;;5082532;28;20075;-79
2023/07/13 02:52:47;;;;;;;11.77;3.65;;;16.40;99.90;;;;;;5112511;28;20039;-79
2023/07/13 02:55:12;;;;;;;11.52;3.10;;;16.40;99.90;;;;;;5105314;28;20051;-78
2023/07/13 02:57:38;;;;;;;12.30;3.13;;;16.40;99.90;;;;;;5101592;28;20047;-79
2023/07/13 03:00:05;;;;;;;15.77;3.80;;;16.30;99.90;;;;;;5115569;28;20031;-80
2023/07/13 03:02:32;;;;;;;13.98;4.05;;;16.30;99.90;;;;;;5097427;28;20055;-80
2023/07/13 03:04:58;;;;;;;19.65;4.25;;;16.30;99.90;;;;;;5097578;28;20031;-80
2023/07/13 03:07:25;;;;;;;14.60;3.53;;;16.30;99.90;;;;;;5096485;28;20047;-79
2023/07/13 03:10:00;;;;;;;19.90;4.20;;;16.20;99.90;;;;;;5120885;28;20046;-80
2023/07/13 03:12:26;;;;;;;13.93;3.55;;;16.30;99.90;;;;;;5118773;28;20293;-79
2023/07/13 03:14:52;;;;;;;12.48;3.60;;;16.20;99.90;;;;;;5115383;28;20401;-79
2023/07/13 03:17:17;;;;;;;12.63;3.92;;;16.20;99.90;;;;;;5110187;28;20079;-79
2023/07/13 03:19:43;;;;;;;15.52;3.85;;;16.20;99.90;;;;;;5100846;28;20020;-77
2023/07/13 03:22:09;;;;;;;15.48;4.32;;;16.30;99.90;;;;;;5121246;28;20119;-79
2023/07/13 03:24:37;;;;;;;15.82;4.50;;;16.10;99.90;;;;;;5089254;28;20043;-79
2023/07/13 03:27:05;;;;;;;15.68;4.70;;;16.10;99.90;;;;;;5118426;28;20115;-81
2023/07/13 03:29:30;;;;;;;14.48;4.20;;;16.10;99.90;;;;;;5115641;28;20040;-79
2023/07/13 03:31:56;;;;;;;16.92;4.38;;;16.10;99.90;;;;;;5116336;28;20080;-77
2023/07/13 03:34:22;;;;;;;17.92;4.15;;;16.10;99.90;;;;;;5116211;28;20039;-80
2023/07/13 03:36:48;;;;;;;16.48;4.60;;;16.10;99.90;;;;;;5090238;28;20043;-80
2023/07/13 03:39:13;;;;;;;17.25;4.38;;;16.10;99.90;;;;;;5101833;28;20043;-79
2023/07/13 03:41:39;;;;;;;14.90;3.72;;;16.10;99.90;;;;;;5118053;28;20036;-78
2023/07/13 03:44:05;;;;;;;16.55;4.10;;;16.20;99.90;;;;;;5075917;28;20055;-79
2023/07/13 03:46:31;;;;;;;15.90;4.07;;;16.20;99.90;;;;;;5109429;28;20460;-78
2023/07/13 03:48:57;;;;;;;14.38;3.60;;;16.20;99.90;;;;;;5081611;28;20042;-79
2023/07/13 03:51:23;;;;;;;21.75;4.35;;;16.20;99.90;;;;;;5107868;28;20419;-79
2023/07/13 03:53:49;;;;;;;11.55;4.25;;;16.20;99.90;;;;;;5092904;28;20061;-80
2023/07/13 03:56:18;;;;;;;12.25;3.70;;;16.20;99.90;;;;;;5092223;28;20043;-79
2023/07/13 03:58:45;;;;;;;17.83;4.25;;;16.20;99.90;;;;;;5092859;28;20166;-79
2023/07/13 04:01:12;;;;;;;10.73;3.53;;;16.20;99.90;;;;;;5098762;28;20039;-79
2023/07/13 04:03:38;;;;;;;17.17;4.55;;;16.30;99.90;;;;;;5100523;28;20052;-81
2023/07/13 04:06:15;;;;;;;12.48;3.92;;;16.20;99.90;;;;;;5119197;27;20461;-78
2023/07/13 04:08:43;;;;;;;14.02;3.90;;;16.30;99.90;;;;;;5116549;28;20051;-77
2023/07/13 04:11:09;;;;;;;21.60;4.43;;;16.20;99.90;;;;;;5114273;28;20047;-79
2023/07/13 04:13:35;;;;;;;17.23;4.07;;;16.20;99.90;;;;;;5115225;28;20399;-80
2023/07/13 04:16:00;;;;;;;15.35;4.55;;;16.20;99.90;;;;;;5125301;28;20044;-79
2023/07/13 04:18:26;;;;;;;13.65;3.45;;;16.20;99.90;;;;;;5123039;28;20042;-79
2023/07/13 04:20:52;;;;;;;15.77;3.45;;;16.20;99.90;;;;;;5119600;28;20119;-79
2023/07/13 04:23:18;;;;;;;17.90;4.00;;;16.10;99.90;;;;;;5103243;28;20097;-79
2023/07/13 04:25:45;;;;;;;13.90;3.85;;;16.20;99.90;;;;;;5099710;28;20118;-79
2023/07/13 04:28:11;;;;;;;19.95;4.18;;;16.20;99.90;;;;;;5097708;28;20035;-78
2023/07/13 04:30:36;;;;;;;17.70;4.60;;;16.20;99.90;;;;;;5108429;28;20062;-78
2023/07/13 04:33:02;;;;;;;16.15;4.28;;;16.20;99.90;;;;;;5099011;28;20122;-80
2023/07/13 04:35:28;;;;;;;20.52;4.53;;;16.20;99.90;;;;;;5079942;28;20071;-80
2023/07/13 04:37:54;;;;;;;14.30;4.13;;;16.20;99.90;;;;;;5117961;28;20044;-79
2023/07/13 04:40:20;;;;;;;25.15;4.80;;;16.20;99.90;;;;;;5120845;28;20051;-78
2023/07/13 04:42:46;;;;;;;18.33;3.97;;;16.30;99.90;;;;;;5119848;28;20043;-79
2023/07/13 04:45:17;;;;;;;13.95;3.80;;;16.20;99.90;;;;;;5121244;28;20119;-79
2023/07/13 04:47:42;;;;;;;12.35;4.30;;;16.30;99.90;;;;;;5103676;28;20023;-79
2023/07/13 04:50:10;;;;;;;18.30;5.30;;;16.30;99.90;;;;;;5124634;28;20087;-78
2023/07/13 04:52:37;;;;;;;15.68;4.20;;;16.30;99.90;;;;;;5114813;28;20031;-79
2023/07/13 04:55:03;;;;;;;18.02;4.25;;;16.30;99.90;;;;;;5115559;28;20058;-78
2023/07/13 04:57:29;;;;;;;16.30;4.45;;;16.40;99.90;;;;;;5097429;28;20043;-79
2023/07/13 04:59:54;;;;;;;15.20;4.15;;;16.40;99.90;;;;;;5098055;28;20485;-79
2023/07/13 05:02:21;;;;;;;12.98;4.38;;;16.40;99.90;;;;;;5109672;28;20170;-78
2023/07/13 05:04:48;;;;;;;21.50;4.57;;;16.50;99.90;;;;;;5109214;28;20047;-78
2023/07/13 05:07:14;;;;;;;17.45;4.05;;;16.50;99.90;;;;;;5108717;28;20055;-79
2023/07/13 05:09:40;;;;;;;17.52;4.85;;;16.60;99.90;;;;;;5114142;28;20052;-79
2023/07/13 05:12:07;;;;;;;19.48;4.80;;;16.60;99.90;;;;;;5098345;28;20400;-78
2023/07/13 05:14:34;;;;;;;12.67;3.90;;;16.70;99.90;;;;;;5095516;28;20439;-78
2023/07/13 05:17:00;;;;;;;19.50;4.50;;;16.80;99.90;;;;;;5122833;28;20789;-78
2023/07/13 05:19:26;;;;;;;18.02;4.22;;;16.80;99.90;;;;;;5115749;28;20103;-80
2023/07/13 05:21:52;;;;;;;16.10;4.30;;;16.90;99.90;;;;;;5119364;28;20042;-79
2023/07/13 05:24:18;;;;;;;19.02;4.70;;;17.00;99.90;;;;;;5119341;28;20524;-79
2023/07/13 05:26:46;;;;;;;19.23;4.10;;;17.00;99.90;;;;;;5115228;28;20075;-80
2023/07/13 05:29:11;;;;;;;;;;;17.20;99.90;;;;;;5099414;28;20032;-79
2023/07/13 05:31:37;;;;;;;12.55;4.22;;;17.20;99.90;;;;;;5110723;28;20529;-79
2023/07/13 05:34:03;;;;;;;15.02;3.35;;;17.30;99.90;;;;;;5103477;28;20040;-78
2023/07/13 05:36:29;;;;;;;16.05;3.58;;;17.40;99.90;;;;;;5114535;28;20040;-77
2023/07/13 05:38:54;;;;;;;12.60;3.53;;;17.40;99.90;;;;;;5116386;28;20134;-79
2023/07/13 05:41:20;;;;;;;14.93;3.97;;;17.50;99.90;;;;;;5119248;28;20466;-79
2023/07/13 05:43:46;;;;;;;13.80;3.63;;;17.60;99.90;;;;;;5100697;28;20462;-78
2023/07/13 05:46:11;;;;;;;12.68;4.07;;;17.60;99.90;;;;;;5120697;28;20036;-78
2023/07/13 05:48:37;;;;;;;17.58;4.40;;;17.70;99.90;;;;;;5095105;28;20035;-78
2023/07/13 05:51:03;;;;;;;16.95;3.88;;;17.80;99.90;;;;;;5110505;28;20048;-78
2023/07/13 05:53:30;;;;;;;10.35;3.80;;;18.00;99.90;;;;;;5114095;28;20050;-79
2023/07/13 05:55:56;;;;;;;14.20;3.60;;;18.20;99.90;;;;;;5109905;28;20039;-77
2023/07/13 05:58:22;;;;;;;13.88;3.97;;;18.40;99.90;;;;;;5110729;28;20096;-78
2023/07/13 06:00:48;;;;;;;10.50;3.30;;;18.50;99.90;;;;;;5113659;28;20031;-78
2023/07/13 06:03:15;;;;;;;16.13;3.88;;;18.60;99.90;;;;;;5118260;28;20039;-78
2023/07/13 06:05:41;;;;;;;14.48;3.00;;;18.70;99.90;;;;;;5081275;28;20043;-78
2023/07/13 06:08:07;;;;;;;10.60;3.25;;;18.90;99.90;;;;;;5115979;28;20039;-79
2023/07/13 06:10:35;;;;;;;22.63;3.83;;;19.00;99.90;;;;;;5097508;28;20059;-79
2023/07/13 06:13:00;;;;;;;12.05;3.05;;;19.20;99.90;;;;;;5121197;28;20055;-79
2023/07/13 06:15:27;;;;;;;9.85;2.58;;;19.40;99.90;;;;;;5124762;28;20065;-78
2023/07/13 06:17:53;;;;;;;17.55;3.60;;;19.70;99.90;;;;;;5121551;28;20047;-77
2023/07/13 06:20:19;;;;;;;14.38;3.13;;;19.70;99.90;;;;;;5101128;28;20091;-81
2023/07/13 06:22:44;;;;;;;15.25;3.75;;;19.80;99.90;;;;;;5100339;28;20101;-78
2023/07/13 06:25:10;;;;;;;13.65;3.10;;;19.90;99.90;;;;;;5097352;28;20134;-79
2023/07/13 06:27:36;;;;;;;13.55;3.03;;;19.90;99.90;;;;;;5100752;28;20039;-78
2023/07/13 06:30:03;;;;;;;9.50;3.30;;;19.90;99.90;;;;;;5118934;28;20043;-81
2023/07/13 06:32:28;;;;;;;8.43;2.95;;;19.80;99.90;;;;;;5081968;28;20169;-79
2023/07/13 06:34:54;;;;;;;13.25;2.90;;;19.80;99.90;;;;;;5067797;28;20063;-81
2023/07/13 06:37:23;;;;;;;14.02;3.22;;;19.90;99.90;;;;;;5100131;28;20108;-76
2023/07/13 06:39:50;;;;;;;13.38;3.05;;;19.90;99.90;;;;;;5116795;28;20040;-80
2023/07/13 06:42:16;;;;;;;10.90;2.40;;;20.00;99.90;;;;;;5125363;28;20044;-82
2023/07/13 06:44:42;;;;;;;9.30;2.72;;;20.00;99.90;;;;;;5118599;28;20392;-83
2023/07/13 06:47:08;;;;;;;8.82;3.22;;;20.10;99.90;;;;;;5103964;28;20519;-82
2023/07/13 06:49:33;;;;;;;10.85;3.20;;;20.20;99.90;;;;;;5100783;28;20123;-79
2023/07/13 06:51:59;;;;;;;11.10;2.78;;;20.30;99.90;;;;;;5118414;28;20039;-81
2023/07/13 06:54:25;;;;;;;10.65;3.25;;;20.40;99.90;;;;;;5094439;28;20051;-80
2023/07/13 06:56:51;;;;;;;16.08;3.10;;;20.40;99.90;;;;;;5112470;28;20062;-80
2023/07/13 06:59:16;;;;;;;13.48;4.63;;;20.40;99.90;;;;;;5077081;28;20096;-80
2023/07/13 07:01:42;;;;;;;13.43;3.80;;;20.60;99.90;;;;;;5101188;28;20097;-80
2023/07/13 07:04:08;;;;;;;9.60;2.55;;;20.60;99.90;;;;;;5115493;28;20038;-78
2023/07/13 07:06:34;;;;;;;11.00;3.38;;;20.60;99.90;;;;;;5117323;28;20493;-81
2023/07/13 07:08:59;;;;;;;10.18;2.50;;;20.70;99.90;;;;;;5095226;28;20043;-78
2023/07/13 07:11:25;;;;;;;14.35;3.00;;;20.70;99.90;;;;;;5105767;28;20039;-80
2023/07/13 07:13:55;;;;;;;7.65;2.22;;;20.60;99.90;;;;;;5107092;28;20036;-80
2023/07/13 07:16:21;;;;;;;11.30;2.47;;;20.70;99.90;;;;;;5118471;28;20039;-80
2023/07/13 07:18:48;;;;;;;9.87;3.10;;;20.80;99.90;;;;;;5123801;28;20350;-81
2023/07/13 07:21:14;;;;;;;7.38;2.30;;;20.90;99.90;;;;;;5100994;28;20305;-80
2023/07/13 07:23:40;;;;;;;12.05;2.42;;;20.80;99.90;;;;;;5100631;28;20097;-80
2023/07/13 07:26:08;;;;;;;5.35;2.10;;;20.70;99.90;;;;;;5111980;28;20048;-80
2023/07/13 07:28:34;;;;;;;6.68;2.17;;;20.50;99.90;;;;;;5093686;28;20047;-79
2023/07/13 07:31:00;;;;;;;8.15;2.30;;;20.30;99.90;;;;;;5117301;28;20402;-80
2023/07/13 07:33:26;;;;;;;7.13;2.05;;;20.20;99.90;;;;;;5116901;28;20043;-79
2023/07/13 07:35:52;;;;;;;9.95;2.22;;;20.10;99.90;;;;;;5106006;28;20028;-81
2023/07/13 07:38:21;;;;;;;12.18;2.38;;;20.10;99.90;;;;;;5095676;28;20518;-80
2023/07/13 07:40:47;;;;;;;6.85;2.05;;;20.30;99.90;;;;;;5105541;28;20048;-80
2023/07/13 07:43:13;;;;;;;7.68;2.35;;;20.40;99.90;;;;;;5116500;28;20101;-83
2023/07/13 07:45:40;;;;;;;8.27;2.53;;;20.50;99.90;;;;;;5119705;28;20045;-79
2023/07/13 07:48:07;;;;;;;7.43;2.15;;;20.60;99.90;;;;;;5104236;28;20057;-80
2023/07/13 07:50:33;;;;;;;7.40;2.03;;;20.80;99.90;;;;;;5104233;28;20088;-79
2023/07/13 07:52:59;;;;;;;8.85;2.38;;;20.80;99.90;;;;;;5122397;28;20035;-81
2023/07/13 07:55:26;;;;;;;8.02;2.42;;;20.80;99.90;;;;;;5123838;28;20051;-80
2023/07/13 07:57:52;;;;;;;10.10;2.28;;;20.70;99.90;;;;;;5087817;28;20036;-81
2023/07/13 08:00:21;;;;;;;10.20;2.33;;;20.60;99.90;;;;;;5102014;28;20109;-79
2023/07/13 08:02:48;;;;;;;6.97;2.25;;;20.40;99.90;;;;;;5124874;28;20426;-78
2023/07/13 08:05:14;;;;;;;8.48;2.35;;;20.30;99.90;;;;;;5088277;28;20048;-80
2023/07/13 08:07:40;;;;;;;11.75;2.83;;;20.20;99.90;;;;;;5093936;28;20062;-80
2023/07/13 08:10:09;;;;;;;5.75;1.80;;;20.00;99.90;;;;;;5120772;28;20394;-81
2023/07/13 08:12:36;;;;;;;5.93;1.90;;;19.90;99.90;;;;;;5092511;28;20097;-80
2023/07/13 08:15:03;;;;;;;5.25;2.35;;;19.70;99.90;;;;;;5122730;28;20500;-81
2023/07/13 08:17:29;;;;;;;5.05;2.08;;;19.60;99.90;;;;;;5119946;28;20473;-81
2023/07/13 08:19:55;;;;;;;3.88;1.60;;;19.70;99.90;;;;;;5103098;28;20038;-82
2023/07/13 08:22:25;;;;;;;10.38;1.70;;;19.70;99.90;;;;;;5116703;28;20469;-82
2023/07/13 08:24:55;;;;;;;3.80;1.60;;;19.60;99.90;;;;;;5084347;28;20047;-82
2023/07/13 08:27:26;;;;;;;4.47;1.80;;;19.80;99.90;;;;;;5101640;28;20066;-80
2023/07/13 08:29:52;;;;;;;4.45;2.03;;;19.80;99.90;;;;;;5099595;28;20091;-82
2023/07/13 08:32:19;;;;;;;5.28;1.98;;;19.80;99.90;;;;;;5114073;28;20036;-80
2023/07/13 08:34:45;;;;;;;7.95;2.22;;;19.90;99.90;;;;;;5079427;28;20035;-79
2023/07/13 08:37:11;;;;;;;4.68;2.15;;;20.00;99.90;;;;;;5096074;28;20065;-79
2023/07/13 08:39:38;;;;;;;8.32;2.00;;;20.10;99.90;;;;;;5098680;28;20036;-78
2023/07/13 08:42:15;;;;;;;8.82;2.45;;;20.10;99.90;;;;;;5091761;28;20052;-78
2023/07/13 08:45:06;;;;;;;7.63;2.70;;;20.10;99.90;;;;;;5104972;28;20401;-77
2023/07/13 08:47:37;;;;;;;6.30;2.30;;;20.10;99.90;;;;;;5119816;28;20048;-79
2023/07/13 08:50:04;;;;;;;8.35;2.75;;;20.00;99.90;;;;;;5097923;28;20048;-78
2023/07/13 08:52:38;;;;;;;10.93;2.70;;;20.10;99.90;;;;;;5093901;28;20505;-79
2023/07/13 08:55:18;;;;;;;9.10;2.45;;;20.30;99.90;;;;;;5098634;28;20046;-79
2023/07/13 08:57:59;;;;;;;11.32;2.08;;;20.50;99.90;;;;;;5110708;28;20095;-79
2023/07/13 09:00:39;;;;;;;12.18;2.92;;;20.70;99.90;;;;;;5113309;28;20076;-79
2023/07/13 09:03:09;;;;;;;5.45;2.30;;;21.20;99.90;;;;;;5093731;28;20039;-78
2023/07/13 09:05:47;;;;;;;9.20;2.15;;;21.30;99.90;;;;;;5100399;28;20435;-78
2023/07/13 09:08:36;;;;;;;;;;;21.40;99.90;;;;;;5113885;28;20101;-78
2023/07/13 09:11:18;;;;;;;7.55;2.30;;;21.30;99.90;;;;;;5125162;28;19920;-78
2023/07/13 09:13:54;;;;;;;8.90;2.83;;;21.20;99.90;;;;;;5109541;28;20047;-79
2023/07/13 09:16:24;;;;;;;4.65;2.22;;;21.00;99.90;;;;;;5115485;28;20043;-80
2023/07/13 09:18:59;;;;;;;9.90;2.60;;;20.90;99.90;;;;;;5075167;28;20394;-78
2023/07/13 09:21:27;;;;;;;6.22;2.20;;;20.80;99.90;;;;;;5077814;28;20048;-78
2023/07/13 09:24:21;;;;;;;6.82;2.20;;;20.80;99.90;;;;;;5079568;28;20044;-80
2023/07/13 09:26:48;;;;;;;7.18;2.22;;;20.90;99.90;;;;;;5072159;28;20043;-80
2023/07/13 09:29:28;;;;;;;6.05;2.13;;;21.10;99.90;;;;;;5087808;28;20048;-79
2023/07/13 09:31:58;;;;;;;7.63;2.28;;;21.40;99.90;;;;;;5116977;28;20047;-78
2023/07/13 09:34:25;;;;;;;5.95;2.63;;;21.70;99.90;;;;;;5075477;28;20032;-80
2023/07/13 09:36:51;;;;;;;8.60;2.40;;;22.00;99.90;;;;;;5106763;28;20120;-78
2023/07/13 09:39:37;;;;;;;6.93;2.13;;;22.30;99.90;;;;;;5086714;28;20071;-79
2023/07/13 09:42:15;;;;;;;7.68;2.45;;;22.60;99.90;;;;;;5093438;28;20058;-79
2023/07/13 09:44:48;;;;;;;5.25;2.00;;;22.90;99.90;;;;;;5095936;28;20569;-78
2023/07/13 09:47:19;;;;;;;10.48;2.03;;;23.00;99.90;;;;;;5096680;28;20052;-78
2023/07/13 09:49:45;;;;;;;5.55;2.10;;;22.90;99.90;;;;;;5115047;28;20043;-77
2023/07/13 09:52:14;;;;;;;26.33;2.85;;;22.70;99.90;;;;;;5096432;28;20048;-77
2023/07/13 09:54:45;;;;;;;9.07;2.30;;;22.50;99.50;;;;;;5113336;28;20032;-77
2023/07/13 09:57:17;;;;;;;6.40;1.83;;;22.40;99.80;;;;;;5092962;28;20453;-78
2023/07/13 09:59:50;;;;;;;8.52;2.30;;;22.50;99.90;;;;;;5087259;28;20031;-76
2023/07/13 10:02:34;;;;;;;5.35;2.03;;;22.50;99.90;;;;;;5091998;28;20375;-77
2023/07/13 10:05:05;;;;;;;8.13;2.42;;;22.30;98.80;;;;;;5103385;28;20043;-78
2023/07/13 10:07:32;;;;;;;6.10;1.80;;;22.10;99.30;;;;;;5083694;28;20080;-77
2023/07/13 10:10:03;;;;;;;7.07;1.80;;;21.90;98.10;;;;;;5103253;28;20050;-77
2023/07/13 10:12:35;;;;;;;5.18;1.55;;;21.70;96.30;;;;;;5086948;28;20039;-77
2023/07/13 10:15:01;;;;;;;5.40;1.60;;;21.50;96.20;;;;;;5108447;28;20050;-77
2023/07/13 10:17:33;;;;;;;5.93;1.98;;;21.30;97.20;;;;;;5093896;28;20130;-78
2023/07/13 10:20:12;;;;;;;4.82;1.70;;;21.20;98.00;;;;;;5114104;28;20051;-79
2023/07/13 10:23:00;;;;;;;6.93;1.50;;;21.40;98.50;;;;;;5114424;28;20043;-77
2023/07/13 10:25:30;;;;;;;4.45;1.38;;;21.70;98.20;;;;;;5114338;28;20047;-77
2023/07/13 10:28:10;;;;;;;3.10;1.17;;;22.00;97.70;;;;;;5114442;28;20036;-79
2023/07/13 10:30:41;;;;;;;3.75;1.60;;;22.10;97.20;;;;;;5111803;28;20075;-77
2023/07/13 10:33:12;;;;;;;5.43;1.90;;;22.10;96.00;;;;;;5096455;28;20059;-78
2023/07/13 10:35:40;;;;;;;10.95;1.70;;;22.10;96.20;;;;;;5092949;28;20043;-78
2023/07/13 10:38:21;;;;;;;4.82;1.48;;;22.20;95.70;;;;;;5090494;28;20044;-77
2023/07/13 10:41:05;;;;;;;4.20;1.60;;;22.40;94.70;;;;;;5071850;28;20083;-77
2023/07/13 10:43:37;;;;;;;7.97;1.77;;;22.50;95.80;;;;;;5114441;28;20044;-77
2023/07/13 10:46:07;;;;;;;6.60;1.70;;;22.40;94.10;;;;;;5103599;28;20047;-78
2023/07/13 10:48:36;;;;;;;5.18;1.50;;;22.10;94.60;;;;;;5105336;28;20032;-77
2023/07/13 10:51:05;;;;;;;4.95;1.50;;;21.90;95.30;;;;;;5112377;28;20054;-77
2023/07/13 10:53:34;;;;;;;3.58;1.30;;;21.80;95.30;;;;;;5101840;28;20116;-76
2023/07/13 10:56:16;;;;;;;3.17;1.17;;;21.90;95.20;;;;;;5117183;28;20047;-79
2023/07/13 10:58:43;;;;;;;6.50;1.40;;;22.20;95.10;;;;;;5105761;28;20051;-77
2023/07/13 11:01:10;;;;;;;12.38;1.85;;;22.60;95.50;;;;;;5124895;28;20050;-78
2023/07/13 11:03:54;;;;;;;3.33;1.13;;;22.90;93.90;;;;;;5117260;28;20048;-77
2023/07/13 11:06:22;;;;;;;5.68;1.50;;;23.10;93.60;;;;;;5124229;28;20516;-77
2023/07/13 11:08:48;;;;;;;15.43;2.42;;;23.40;92.70;;;;;;5123677;28;20401;-78
2023/07/13 11:11:40;;;;;;;4.22;1.60;;;23.60;92.70;;;;;;5124442;28;20035;-78
2023/07/13 11:14:26;;;;;;;4.45;1.60;;;23.80;93.30;;;;;;5103192;28;20056;-78
2023/07/13 11:16:52;;;;;;;2.10;1.23;;;24.10;91.80;;;;;;5122299;28;20125;-77
2023/07/13 11:19:18;;;;;;;4.60;1.73;;;24.20;92.30;;;;;;5115502;28;20148;-79
2023/07/13 11:22:12;;;;;;;8.25;1.40;;;24.00;91.60;;;;;;5110343;28;20036;-78
2023/07/13 11:25:21;;;;;;;5.93;1.88;;;23.80;92.20;;;;;;5120769;28;20043;-79
2023/07/13 11:27:52;;;;;;;5.35;1.40;;;23.80;92.10;;;;;;5099802;28;20044;-78
2023/07/13 11:30:28;;;;;;;3.60;1.60;;;23.80;92.10;;;;;;5110398;28;20040;-77
2023/07/13 11:33:08;;;;;;;3.40;1.70;;;23.90;91.20;;;;;;5082144;28;20051;-77
2023/07/13 11:36:02;;;;;;;3.83;1.42;;;24.10;92.30;;;;;;5115357;28;20088;-78
2023/07/13 11:38:36;;;;;;;5.95;1.90;;;24.40;90.70;;;;;;5092217;28;20062;-77
2023/07/13 11:41:15;;;;;;;7.35;1.55;;;24.60;91.10;;;;;;5117258;28;20127;-77
2023/07/13 11:43:42;;;;;;;13.38;1.90;;;24.80;90.70;;;;;;5119997;28;20048;-79
2023/07/13 11:46:22;;;;;;;5.35;1.90;;;24.50;90.80;;;;;;5085283;28;20044;-78
2023/07/13 11:48:49;;;;;;;6.95;1.88;;;24.40;90.90;;;;;;5088319;28;20047;-79
2023/07/13 11:51:23;;;;;;;7.80;2.63;;;24.20;90.50;;;;;;5118018;28;20090;-79
2023/07/13 11:53:51;;;;;;;4.15;1.65;;;24.00;90.10;;;;;;5108653;28;20032;-79
2023/07/13 11:56:17;;;;;;;7.75;1.80;;;24.00;90.10;;;;;;5120018;28;20039;-79
2023/07/13 11:58:44;;;;;;;4.35;1.63;;;24.30;90.60;;;;;;5119300;28;20040;-79
2023/07/13 12:01:32;;;;;;;6.78;1.73;;;24.60;90.30;;;;;;5119310;28;20048;-79
2023/07/13 12:04:00;;;;;;;9.53;2.30;;;24.60;89.10;;;;;;5111877;28;20403;-79
2023/07/13 12:06:32;;;;;;;5.15;1.75;;;24.40;89.60;;;;;;5085304;28;20306;-80
2023/07/13 12:09:12;;;;;;;5.78;1.45;;;24.30;90.70;;;;;;5107226;28;20150;-80
2023/07/13 12:11:41;;;;;;;5.28;1.63;;;24.30;90.20;;;;;;5107681;28;20040;-80
2023/07/13 12:14:18;;;;;;;8.38;1.70;;;24.40;90.20;;;;;;5103901;28;20113;-81
2023/07/13 12:16:46;;;;;;;8.27;1.90;;;24.70;89.90;;;;;;5119231;28;20123;-80
2023/07/13 12:19:31;;;;;;;5.88;1.88;;;24.90;90.00;;;;;;5081423;28;20075;-79
2023/07/13 12:21:59;;;;;;;11.05;1.92;;;25.20;90.10;;;;;;5118268;28;20047;-79
2023/07/13 12:24:25;;;;;;;;;;;25.40;88.20;;;;;;5122002;28;20050;-80
2023/07/13 12:27:03;;;;;;;3.10;1.38;;;25.50;85.60;;;;;;5105479;28;20026;-81
2023/07/13 12:29:31;;;;;;;9.15;1.52;;;25.60;87.40;;;;;;5120696;28;20090;-81
2023/07/13 12:31:59;;;;;;;5.30;1.70;;;25.30;85.40;;;;;;5116544;28;20060;-81
2023/07/13 12:34:28;;;;;;;10.13;2.10;;;24.80;85.30;;;;;;5115709;28;20043;-80
2023/07/13 12:36:55;;;;;;;11.07;2.17;;;24.40;85.90;;;;;;5117829;28;20497;-81
2023/07/13 12:39:20;;;;;;;7.00;1.60;;;24.00;87.20;;;;;;5113556;28;20051;-79
2023/07/13 12:41:48;;;;;;;3.30;1.50;;;23.80;86.20;;;;;;5120378;28;20036;-79
2023/07/13 12:44:27;;;;;;;9.95;1.85;;;23.70;87.50;;;;;;5105509;28;20048;-81
2023/07/13 12:47:04;;;;;;;7.57;1.70;;;23.60;90.10;;;;;;5121623;28;20043;-81
2023/07/13 12:49:34;;;;;;;5.22;2.03;;;23.70;89.00;;;;;;5122212;28;20035;-79